sensor_id;sensor_type;location;lat;lon;timestamp;P1;durP1;ratioP1;P2;durP2;ratioP2
68432;SDS011;55412;51.350;17.056;2023-02-26T00:01:24;5.03;;;1.02;;
68432;SDS011;55412;51.350;17.056;2023-02-26T00:03:54;7.60;;;1.38;;
68432;SDS011;55412;51.350;17.056;2023-02-26T00:06:24;3.23;;;0.80;;
68432;SDS011;55412;51.350;17.056;2023-02-26T00:08:52;4.93;;;1.05;;
68432;SDS011;55412;51.350;17.056;2023-02-26T00:11:18;4.20;;;0.70;;
68432;SDS011;55412;51.350;17.056;2023-02-26T00:13:45;4.75;;;1.38;;
68432;SDS011;55412;51.350;17.056;2023-02-26T00:18:55;1.47;;;0.27;;
68432;SDS011;55412;51.350;17.056;2023-02-26T00:21:28;3.60;;;0.70;;
68432;SDS011;55412;51.350;17.056;2023-02-26T00:23:56;3.53;;;0.47;;
68432;SDS011;55412;51.350;17.056;2023-02-26T00:26:23;7.30;;;0.90;;
68432;SDS011;55412;51.350;17.056;2023-02-26T00:28:50;3.90;;;0.77;;
68432;SDS011;55412;51.350;17.056;2023-02-26T00:31:17;2.90;;;0.47;;
68432;SDS011;55412;51.350;17.056;2023-02-26T00:33:50;4.10;;;0.80;;
68432;SDS011;55412;51.350;17.056;2023-02-26T00:41:37;3.53;;;0.70;;
68432;SDS011;55412;51.350;17.056;2023-02-26T00:44:03;4.37;;;1.03;;
68432;SDS011;55412;51.350;17.056;2023-02-26T00:51:55;4.10;;;1.10;;
68432;SDS011;55412;51.350;17.056;2023-02-26T00:54:30;4.10;;;0.70;;
68432;SDS011;55412;51.350;17.056;2023-02-26T00:56:57;2.63;;;0.50;;
68432;SDS011;55412;51.350;17.056;2023-02-26T00:59:24;3.45;;;0.85;;
68432;SDS011;55412;51.350;17.056;2023-02-26T01:01:50;2.20;;;0.20;;
68432;SDS011;55412;51.350;17.056;2023-02-26T01:04:19;2.25;;;0.38;;
68432;SDS011;55412;51.350;17.056;2023-02-26T01:06:48;3.88;;;0.57;;
68432;SDS011;55412;51.350;17.056;2023-02-26T01:09:25;3.97;;;0.67;;
68432;SDS011;55412;51.350;17.056;2023-02-26T01:11:59;3.53;;;0.68;;
68432;SDS011;55412;51.350;17.056;2023-02-26T01:14:32;3.70;;;0.50;;
68432;SDS011;55412;51.350;17.056;2023-02-26T01:17:06;1.95;;;0.28;;
68432;SDS011;55412;51.350;17.056;2023-02-26T01:25:13;2.30;;;0.20;;
68432;SDS011;55412;51.350;17.056;2023-02-26T01:27:45;2.88;;;0.25;;
68432;SDS011;55412;51.350;17.056;2023-02-26T01:30:11;2.72;;;0.52;;
68432;SDS011;55412;51.350;17.056;2023-02-26T01:35:36;3.40;;;0.30;;
68432;SDS011;55412;51.350;17.056;2023-02-26T01:38:26;4.65;;;0.60;;
68432;SDS011;55412;51.350;17.056;2023-02-26T01:44:09;3.17;;;0.47;;
68432;SDS011;55412;51.350;17.056;2023-02-26T01:49:29;2.57;;;0.20;;
68432;SDS011;55412;51.350;17.056;2023-02-26T01:52:00;2.30;;;0.47;;
68432;SDS011;55412;51.350;17.056;2023-02-26T01:54:32;5.57;;;0.85;;
68432;SDS011;55412;51.350;17.056;2023-02-26T01:57:03;1.95;;;0.15;;
68432;SDS011;55412;51.350;17.056;2023-02-26T01:59:43;3.15;;;0.82;;
68432;SDS011;55412;51.350;17.056;2023-02-26T02:02:13;3.77;;;0.60;;
68432;SDS011;55412;51.350;17.056;2023-02-26T02:04:43;2.17;;;0.30;;
68432;SDS011;55412;51.350;17.056;2023-02-26T02:07:12;6.10;;;0.50;;
68432;SDS011;55412;51.350;17.056;2023-02-26T02:09:38;2.85;;;0.40;;
68432;SDS011;55412;51.350;17.056;2023-02-26T02:15:03;2.93;;;0.60;;
68432;SDS011;55412;51.350;17.056;2023-02-26T02:23:32;3.28;;;0.32;;
68432;SDS011;55412;51.350;17.056;2023-02-26T02:29:39;3.07;;;0.47;;
68432;SDS011;55412;51.350;17.056;2023-02-26T02:32:53;3.10;;;0.43;;
68432;SDS011;55412;51.350;17.056;2023-02-26T02:35:29;2.83;;;0.60;;
68432;SDS011;55412;51.350;17.056;2023-02-26T02:38:04;2.15;;;0.32;;
68432;SDS011;55412;51.350;17.056;2023-02-26T02:40:42;2.90;;;0.20;;
68432;SDS011;55412;51.350;17.056;2023-02-26T02:43:17;2.20;;;0.30;;
68432;SDS011;55412;51.350;17.056;2023-02-26T02:45:49;2.80;;;0.57;;
68432;SDS011;55412;51.350;17.056;2023-02-26T02:51:13;2.00;;;0.30;;
68432;SDS011;55412;51.350;17.056;2023-02-26T02:56:47;3.93;;;0.50;;
68432;SDS011;55412;51.350;17.056;2023-02-26T03:04:35;2.83;;;0.38;;
68432;SDS011;55412;51.350;17.056;2023-02-26T03:07:02;2.75;;;0.13;;
68432;SDS011;55412;51.350;17.056;2023-02-26T03:09:28;2.33;;;0.30;;
68432;SDS011;55412;51.350;17.056;2023-02-26T03:11:54;3.42;;;0.30;;
68432;SDS011;55412;51.350;17.056;2023-02-26T03:14:20;3.88;;;0.40;;
68432;SDS011;55412;51.350;17.056;2023-02-26T03:20:22;2.33;;;0.20;;
68432;SDS011;55412;51.350;17.056;2023-02-26T03:25:49;6.53;;;0.52;;
68432;SDS011;55412;51.350;17.056;2023-02-26T03:29:54;2.22;;;0.20;;
68432;SDS011;55412;51.350;17.056;2023-02-26T03:32:02;3.25;;;0.70;;
68432;SDS011;55412;51.350;17.056;2023-02-26T03:37:12;7.97;;;0.55;;
68432;SDS011;55412;51.350;17.056;2023-02-26T03:39:51;2.65;;;0.30;;
68432;SDS011;55412;51.350;17.056;2023-02-26T03:42:26;3.80;;;0.68;;
68432;SDS011;55412;51.350;17.056;2023-02-26T03:45:23;5.47;;;0.80;;
68432;SDS011;55412;51.350;17.056;2023-02-26T03:47:54;3.37;;;0.60;;
68432;SDS011;55412;51.350;17.056;2023-02-26T03:50:26;4.85;;;0.88;;
68432;SDS011;55412;51.350;17.056;2023-02-26T03:53:02;4.28;;;0.60;;
68432;SDS011;55412;51.350;17.056;2023-02-26T03:55:38;2.75;;;0.43;;
68432;SDS011;55412;51.350;17.056;2023-02-26T03:58:21;2.72;;;0.32;;
68432;SDS011;55412;51.350;17.056;2023-02-26T04:00:49;2.63;;;0.40;;
68432;SDS011;55412;51.350;17.056;2023-02-26T04:05:54;2.65;;;0.20;;
68432;SDS011;55412;51.350;17.056;2023-02-26T04:08:21;2.83;;;0.20;;
68432;SDS011;55412;51.350;17.056;2023-02-26T04:10:58;1.83;;;0.17;;
68432;SDS011;55412;51.350;17.056;2023-02-26T04:13:30;1.53;;;0.20;;
68432;SDS011;55412;51.350;17.056;2023-02-26T04:15:56;2.28;;;0.40;;
68432;SDS011;55412;51.350;17.056;2023-02-26T04:18:22;2.33;;;0.20;;
68432;SDS011;55412;51.350;17.056;2023-02-26T04:20:48;1.67;;;0.30;;
68432;SDS011;55412;51.350;17.056;2023-02-26T04:23:14;1.45;;;0.30;;
68432;SDS011;55412;51.350;17.056;2023-02-26T04:25:41;1.80;;;0.23;;
68432;SDS011;55412;51.350;17.056;2023-02-26T04:28:07;2.47;;;0.20;;
68432;SDS011;55412;51.350;17.056;2023-02-26T04:30:33;2.00;;;0.25;;
68432;SDS011;55412;51.350;17.056;2023-02-26T04:32:59;2.28;;;0.20;;
68432;SDS011;55412;51.350;17.056;2023-02-26T04:35:25;2.17;;;0.20;;
68432;SDS011;55412;51.350;17.056;2023-02-26T04:37:51;1.97;;;0.20;;
68432;SDS011;55412;51.350;17.056;2023-02-26T04:40:16;5.15;;;0.32;;
68432;SDS011;55412;51.350;17.056;2023-02-26T04:42:43;2.03;;;0.10;;
68432;SDS011;55412;51.350;17.056;2023-02-26T04:45:09;2.97;;;0.20;;
68432;SDS011;55412;51.350;17.056;2023-02-26T04:47:35;1.47;;;0.20;;
68432;SDS011;55412;51.350;17.056;2023-02-26T04:50:01;1.50;;;0.13;;
68432;SDS011;55412;51.350;17.056;2023-02-26T04:52:27;5.03;;;0.10;;
68432;SDS011;55412;51.350;17.056;2023-02-26T04:54:53;1.35;;;0.10;;
68432;SDS011;55412;51.350;17.056;2023-02-26T04:57:19;2.78;;;0.17;;
68432;SDS011;55412;51.350;17.056;2023-02-26T04:59:46;1.07;;;0.10;;
68432;SDS011;55412;51.350;17.056;2023-02-26T05:02:12;2.08;;;0.22;;
68432;SDS011;55412;51.350;17.056;2023-02-26T05:04:38;1.77;;;0.20;;
68432;SDS011;55412;51.350;17.056;2023-02-26T05:07:04;2.97;;;0.20;;
68432;SDS011;55412;51.350;17.056;2023-02-26T05:09:30;1.83;;;0.20;;
68432;SDS011;55412;51.350;17.056;2023-02-26T05:11:56;1.98;;;0.30;;
68432;SDS011;55412;51.350;17.056;2023-02-26T05:14:22;3.70;;;0.20;;
68432;SDS011;55412;51.350;17.056;2023-02-26T05:16:48;1.50;;;0.20;;
68432;SDS011;55412;51.350;17.056;2023-02-26T05:19:14;2.00;;;0.30;;
68432;SDS011;55412;51.350;17.056;2023-02-26T05:21:40;1.63;;;0.20;;
68432;SDS011;55412;51.350;17.056;2023-02-26T05:24:07;1.73;;;0.20;;
68432;SDS011;55412;51.350;17.056;2023-02-26T05:26:33;3.30;;;0.28;;
68432;SDS011;55412;51.350;17.056;2023-02-26T05:28:59;2.95;;;0.25;;
68432;SDS011;55412;51.350;17.056;2023-02-26T05:31:25;2.03;;;0.25;;
68432;SDS011;55412;51.350;17.056;2023-02-26T05:33:51;2.57;;;0.30;;
68432;SDS011;55412;51.350;17.056;2023-02-26T05:36:17;2.70;;;0.50;;
68432;SDS011;55412;51.350;17.056;2023-02-26T05:38:43;4.38;;;0.38;;
68432;SDS011;55412;51.350;17.056;2023-02-26T05:41:09;1.65;;;0.20;;
68432;SDS011;55412;51.350;17.056;2023-02-26T05:43:35;3.13;;;0.20;;
68432;SDS011;55412;51.350;17.056;2023-02-26T05:46:01;2.30;;;0.30;;
68432;SDS011;55412;51.350;17.056;2023-02-26T05:48:27;4.00;;;0.22;;
68432;SDS011;55412;51.350;17.056;2023-02-26T05:50:53;1.65;;;0.10;;
68432;SDS011;55412;51.350;17.056;2023-02-26T05:53:19;1.77;;;0.10;;
68432;SDS011;55412;51.350;17.056;2023-02-26T05:55:45;1.58;;;0.25;;
68432;SDS011;55412;51.350;17.056;2023-02-26T05:58:11;2.83;;;0.20;;
68432;SDS011;55412;51.350;17.056;2023-02-26T06:00:38;3.67;;;0.70;;
68432;SDS011;55412;51.350;17.056;2023-02-26T06:03:04;1.30;;;0.10;;
68432;SDS011;55412;51.350;17.056;2023-02-26T06:05:30;2.47;;;0.43;;
68432;SDS011;55412;51.350;17.056;2023-02-26T06:07:56;2.20;;;0.20;;
68432;SDS011;55412;51.350;17.056;2023-02-26T06:10:22;3.05;;;0.38;;
68432;SDS011;55412;51.350;17.056;2023-02-26T06:12:48;4.00;;;0.90;;
68432;SDS011;55412;51.350;17.056;2023-02-26T06:15:14;2.80;;;0.38;;
68432;SDS011;55412;51.350;17.056;2023-02-26T06:17:40;4.13;;;0.60;;
68432;SDS011;55412;51.350;17.056;2023-02-26T06:20:06;3.33;;;0.30;;
68432;SDS011;55412;51.350;17.056;2023-02-26T06:22:34;2.90;;;0.50;;
68432;SDS011;55412;51.350;17.056;2023-02-26T06:25:00;2.55;;;0.30;;
68432;SDS011;55412;51.350;17.056;2023-02-26T06:27:26;2.50;;;0.17;;
68432;SDS011;55412;51.350;17.056;2023-02-26T06:29:52;4.60;;;0.80;;
68432;SDS011;55412;51.350;17.056;2023-02-26T06:32:18;2.77;;;0.23;;
68432;SDS011;55412;51.350;17.056;2023-02-26T06:34:44;4.32;;;1.00;;
68432;SDS011;55412;51.350;17.056;2023-02-26T06:37:10;2.55;;;0.43;;
68432;SDS011;55412;51.350;17.056;2023-02-26T06:39:36;3.83;;;0.50;;
68432;SDS011;55412;51.350;17.056;2023-02-26T06:42:02;4.97;;;0.63;;
68432;SDS011;55412;51.350;17.056;2023-02-26T06:44:29;2.63;;;0.60;;
68432;SDS011;55412;51.350;17.056;2023-02-26T06:46:55;3.13;;;0.52;;
68432;SDS011;55412;51.350;17.056;2023-02-26T06:49:21;4.10;;;0.90;;
68432;SDS011;55412;51.350;17.056;2023-02-26T06:51:47;4.17;;;0.40;;
68432;SDS011;55412;51.350;17.056;2023-02-26T06:54:13;2.80;;;0.47;;
68432;SDS011;55412;51.350;17.056;2023-02-26T06:56:39;3.22;;;0.80;;
68432;SDS011;55412;51.350;17.056;2023-02-26T06:59:05;4.97;;;1.02;;
68432;SDS011;55412;51.350;17.056;2023-02-26T07:01:31;2.50;;;0.50;;
68432;SDS011;55412;51.350;17.056;2023-02-26T07:03:57;2.10;;;0.30;;
68432;SDS011;55412;51.350;17.056;2023-02-26T07:06:23;3.53;;;0.35;;
68432;SDS011;55412;51.350;17.056;2023-02-26T07:08:50;2.95;;;0.40;;
68432;SDS011;55412;51.350;17.056;2023-02-26T07:11:16;2.88;;;0.40;;
68432;SDS011;55412;51.350;17.056;2023-02-26T07:13:42;3.85;;;0.57;;
68432;SDS011;55412;51.350;17.056;2023-02-26T07:16:08;3.63;;;0.73;;
68432;SDS011;55412;51.350;17.056;2023-02-26T07:18:34;3.83;;;0.90;;
68432;SDS011;55412;51.350;17.056;2023-02-26T07:21:01;4.40;;;0.85;;
68432;SDS011;55412;51.350;17.056;2023-02-26T07:23:29;3.72;;;0.50;;
68432;SDS011;55412;51.350;17.056;2023-02-26T07:25:55;4.60;;;0.73;;
68432;SDS011;55412;51.350;17.056;2023-02-26T07:28:24;6.82;;;1.30;;
68432;SDS011;55412;51.350;17.056;2023-02-26T07:30:52;60.85;;;22.20;;
68432;SDS011;55412;51.350;17.056;2023-02-26T07:33:20;32.72;;;11.93;;
68432;SDS011;55412;51.350;17.056;2023-02-26T07:35:46;128.15;;;36.22;;
68432;SDS011;55412;51.350;17.056;2023-02-26T07:38:12;166.30;;;48.67;;
68432;SDS011;55412;51.350;17.056;2023-02-26T07:40:38;105.93;;;35.00;;
68432;SDS011;55412;51.350;17.056;2023-02-26T07:43:04;55.42;;;19.63;;
68432;SDS011;55412;51.350;17.056;2023-02-26T07:45:30;138.68;;;55.70;;
68432;SDS011;55412;51.350;17.056;2023-02-26T07:47:57;43.38;;;15.98;;
68432;SDS011;55412;51.350;17.056;2023-02-26T07:50:24;139.87;;;50.00;;
68432;SDS011;55412;51.350;17.056;2023-02-26T07:52:50;104.97;;;35.38;;
68432;SDS011;55412;51.350;17.056;2023-02-26T07:55:17;167.85;;;52.80;;
68432;SDS011;55412;51.350;17.056;2023-02-26T07:57:44;186.35;;;56.05;;
68432;SDS011;55412;51.350;17.056;2023-02-26T08:00:11;75.97;;;22.65;;
68432;SDS011;55412;51.350;17.056;2023-02-26T08:02:38;126.63;;;36.73;;
68432;SDS011;55412;51.350;17.056;2023-02-26T08:05:05;227.23;;;62.00;;
68432;SDS011;55412;51.350;17.056;2023-02-26T08:07:31;114.72;;;30.52;;
68432;SDS011;55412;51.350;17.056;2023-02-26T08:09:57;37.72;;;9.48;;
68432;SDS011;55412;51.350;17.056;2023-02-26T08:12:23;17.00;;;4.40;;
68432;SDS011;55412;51.350;17.056;2023-02-26T08:14:49;10.23;;;2.00;;
68432;SDS011;55412;51.350;17.056;2023-02-26T08:17:15;9.15;;;2.38;;
68432;SDS011;55412;51.350;17.056;2023-02-26T08:19:41;3.92;;;1.25;;
68432;SDS011;55412;51.350;17.056;2023-02-26T08:22:07;83.03;;;24.75;;
68432;SDS011;55412;51.350;17.056;2023-02-26T08:24:33;178.50;;;49.95;;
68432;SDS011;55412;51.350;17.056;2023-02-26T08:26:59;167.13;;;41.57;;
68432;SDS011;55412;51.350;17.056;2023-02-26T08:29:25;129.77;;;31.05;;
68432;SDS011;55412;51.350;17.056;2023-02-26T08:31:51;30.75;;;8.80;;
68432;SDS011;55412;51.350;17.056;2023-02-26T08:34:18;71.50;;;18.10;;
68432;SDS011;55412;51.350;17.056;2023-02-26T08:36:44;42.25;;;10.80;;
68432;SDS011;55412;51.350;17.056;2023-02-26T08:39:10;172.43;;;41.07;;
68432;SDS011;55412;51.350;17.056;2023-02-26T08:41:36;90.95;;;23.65;;
68432;SDS011;55412;51.350;17.056;2023-02-26T08:44:03;102.97;;;25.65;;
68432;SDS011;55412;51.350;17.056;2023-02-26T08:46:29;151.60;;;34.35;;
68432;SDS011;55412;51.350;17.056;2023-02-26T08:48:55;151.95;;;34.10;;
68432;SDS011;55412;51.350;17.056;2023-02-26T08:51:21;108.90;;;27.00;;
68432;SDS011;55412;51.350;17.056;2023-02-26T08:53:48;80.65;;;19.02;;
68432;SDS011;55412;51.350;17.056;2023-02-26T08:56:14;119.57;;;29.67;;
68432;SDS011;55412;51.350;17.056;2023-02-26T08:58:41;305.88;;;81.32;;
68432;SDS011;55412;51.350;17.056;2023-02-26T09:01:08;101.47;;;28.85;;
68432;SDS011;55412;51.350;17.056;2023-02-26T09:03:34;110.30;;;30.90;;
68432;SDS011;55412;51.350;17.056;2023-02-26T09:06:01;64.18;;;18.88;;
68432;SDS011;55412;51.350;17.056;2023-02-26T09:08:29;45.08;;;13.20;;
68432;SDS011;55412;51.350;17.056;2023-02-26T09:11:00;86.07;;;24.60;;
68432;SDS011;55412;51.350;17.056;2023-02-26T09:13:27;90.90;;;31.15;;
68432;SDS011;55412;51.350;17.056;2023-02-26T09:15:54;34.70;;;10.90;;
68432;SDS011;55412;51.350;17.056;2023-02-26T09:18:20;119.10;;;35.42;;
68432;SDS011;55412;51.350;17.056;2023-02-26T09:20:47;78.68;;;22.50;;
68432;SDS011;55412;51.350;17.056;2023-02-26T09:23:13;91.85;;;26.35;;
68432;SDS011;55412;51.350;17.056;2023-02-26T09:25:39;59.72;;;19.17;;
68432;SDS011;55412;51.350;17.056;2023-02-26T09:28:05;44.90;;;16.43;;
68432;SDS011;55412;51.350;17.056;2023-02-26T09:30:31;123.03;;;40.13;;
68432;SDS011;55412;51.350;17.056;2023-02-26T09:32:57;15.63;;;5.65;;
68432;SDS011;55412;51.350;17.056;2023-02-26T09:35:24;29.45;;;9.35;;
68432;SDS011;55412;51.350;17.056;2023-02-26T09:37:50;63.13;;;17.75;;
68432;SDS011;55412;51.350;17.056;2023-02-26T09:40:35;42.83;;;14.23;;
68432;SDS011;55412;51.350;17.056;2023-02-26T09:48:57;9.13;;;2.45;;
68432;SDS011;55412;51.350;17.056;2023-02-26T09:51:35;13.65;;;4.05;;
68432;SDS011;55412;51.350;17.056;2023-02-26T09:54:23;20.80;;;5.90;;
68432;SDS011;55412;51.350;17.056;2023-02-26T09:56:55;13.27;;;4.32;;
68432;SDS011;55412;51.350;17.056;2023-02-26T09:59:29;11.45;;;3.35;;
68432;SDS011;55412;51.350;17.056;2023-02-26T10:02:04;63.58;;;20.05;;
68432;SDS011;55412;51.350;17.056;2023-02-26T10:08:02;45.73;;;18.30;;
68432;SDS011;55412;51.350;17.056;2023-02-26T10:13:43;172.88;;;48.55;;
68432;SDS011;55412;51.350;17.056;2023-02-26T10:16:36;135.20;;;40.13;;
68432;SDS011;55412;51.350;17.056;2023-02-26T10:19:07;62.75;;;25.20;;
68432;SDS011;55412;51.350;17.056;2023-02-26T10:25:09;37.10;;;13.40;;
68432;SDS011;55412;51.350;17.056;2023-02-26T10:28:32;32.38;;;10.70;;
68432;SDS011;55412;51.350;17.056;2023-02-26T10:36:46;40.77;;;14.77;;
68432;SDS011;55412;51.350;17.056;2023-02-26T10:39:28;65.75;;;18.98;;
68432;SDS011;55412;51.350;17.056;2023-02-26T10:42:25;45.75;;;14.13;;
68432;SDS011;55412;51.350;17.056;2023-02-26T10:51:15;18.70;;;6.60;;
68432;SDS011;55412;51.350;17.056;2023-02-26T10:53:57;36.45;;;13.40;;
68432;SDS011;55412;51.350;17.056;2023-02-26T10:56:48;57.80;;;18.80;;
68432;SDS011;55412;51.350;17.056;2023-02-26T10:59:14;78.57;;;21.95;;
68432;SDS011;55412;51.350;17.056;2023-02-26T11:01:41;46.78;;;16.48;;
68432;SDS011;55412;51.350;17.056;2023-02-26T11:04:10;31.93;;;12.07;;
68432;SDS011;55412;51.350;17.056;2023-02-26T11:07:00;125.47;;;39.22;;
68432;SDS011;55412;51.350;17.056;2023-02-26T11:09:33;30.52;;;9.85;;
68432;SDS011;55412;51.350;17.056;2023-02-26T11:14:35;26.90;;;9.13;;
68432;SDS011;55412;51.350;17.056;2023-02-26T11:19:54;28.35;;;12.02;;
68432;SDS011;55412;51.350;17.056;2023-02-26T11:22:28;14.68;;;6.53;;
68432;SDS011;55412;51.350;17.056;2023-02-26T11:24:57;17.50;;;7.00;;
68432;SDS011;55412;51.350;17.056;2023-02-26T11:27:25;30.52;;;12.73;;
68432;SDS011;55412;51.350;17.056;2023-02-26T11:30:04;20.53;;;8.23;;
68432;SDS011;55412;51.350;17.056;2023-02-26T11:32:43;23.08;;;9.82;;
68432;SDS011;55412;51.350;17.056;2023-02-26T11:35:14;17.58;;;6.18;;
68432;SDS011;55412;51.350;17.056;2023-02-26T11:37:47;15.77;;;4.60;;
68432;SDS011;55412;51.350;17.056;2023-02-26T11:40:36;32.90;;;15.63;;
68432;SDS011;55412;51.350;17.056;2023-02-26T11:43:08;10.73;;;4.57;;
68432;SDS011;55412;51.350;17.056;2023-02-26T11:45:52;13.10;;;4.63;;
68432;SDS011;55412;51.350;17.056;2023-02-26T11:48:26;7.97;;;2.53;;
68432;SDS011;55412;51.350;17.056;2023-02-26T11:51:13;15.23;;;6.97;;
68432;SDS011;55412;51.350;17.056;2023-02-26T11:53:51;53.90;;;16.88;;
68432;SDS011;55412;51.350;17.056;2023-02-26T11:56:30;30.87;;;11.37;;
68432;SDS011;55412;51.350;17.056;2023-02-26T11:59:07;18.30;;;6.32;;
68432;SDS011;55412;51.350;17.056;2023-02-26T12:02:05;18.63;;;5.82;;
68432;SDS011;55412;51.350;17.056;2023-02-26T12:04:38;16.30;;;5.47;;
68432;SDS011;55412;51.350;17.056;2023-02-26T12:07:13;21.55;;;8.00;;
68432;SDS011;55412;51.350;17.056;2023-02-26T12:09:41;25.13;;;9.60;;
68432;SDS011;55412;51.350;17.056;2023-02-26T12:12:15;9.15;;;1.45;;
68432;SDS011;55412;51.350;17.056;2023-02-26T12:15:16;1.75;;;0.28;;
68432;SDS011;55412;51.350;17.056;2023-02-26T12:36:53;2.97;;;0.60;;
68432;SDS011;55412;51.350;17.056;2023-02-26T12:42:22;2.00;;;0.47;;
68432;SDS011;55412;51.350;17.056;2023-02-26T13:05:47;8.30;;;2.53;;
68432;SDS011;55412;51.350;17.056;2023-02-26T13:08:41;7.70;;;2.37;;
68432;SDS011;55412;51.350;17.056;2023-02-26T13:12:30;4.20;;;1.20;;
68432;SDS011;55412;51.350;17.056;2023-02-26T13:18:13;4.70;;;1.13;;
68432;SDS011;55412;51.350;17.056;2023-02-26T13:21:04;3.55;;;0.60;;
68432;SDS011;55412;51.350;17.056;2023-02-26T13:23:48;3.97;;;0.60;;
68432;SDS011;55412;51.350;17.056;2023-02-26T13:26:29;4.25;;;1.15;;
68432;SDS011;55412;51.350;17.056;2023-02-26T13:29:19;5.35;;;1.52;;
68432;SDS011;55412;51.350;17.056;2023-02-26T13:31:54;8.43;;;1.20;;
68432;SDS011;55412;51.350;17.056;2023-02-26T13:34:43;8.23;;;1.95;;
68432;SDS011;55412;51.350;17.056;2023-02-26T13:51:06;9.03;;;1.90;;
68432;SDS011;55412;51.350;17.056;2023-02-26T13:53:57;13.07;;;4.10;;
68432;SDS011;55412;51.350;17.056;2023-02-26T13:59:04;19.67;;;7.82;;
68432;SDS011;55412;51.350;17.056;2023-02-26T14:04:49;102.57;;;25.33;;
68432;SDS011;55412;51.350;17.056;2023-02-26T14:10:25;74.32;;;17.73;;
68432;SDS011;55412;51.350;17.056;2023-02-26T14:13:02;51.08;;;13.15;;
68432;SDS011;55412;51.350;17.056;2023-02-26T14:15:41;38.35;;;8.65;;
68432;SDS011;55412;51.350;17.056;2023-02-26T14:18:36;30.00;;;6.90;;
68432;SDS011;55412;51.350;17.056;2023-02-26T14:21:32;48.05;;;13.20;;
68432;SDS011;55412;51.350;17.056;2023-02-26T14:24:10;84.45;;;20.75;;
68432;SDS011;55412;51.350;17.056;2023-02-26T14:26:47;62.42;;;17.80;;
68432;SDS011;55412;51.350;17.056;2023-02-26T14:29:57;80.97;;;19.55;;
68432;SDS011;55412;51.350;17.056;2023-02-26T14:32:51;37.43;;;11.13;;
68432;SDS011;55412;51.350;17.056;2023-02-26T14:35:49;46.75;;;12.85;;
68432;SDS011;55412;51.350;17.056;2023-02-26T14:38:19;29.30;;;6.97;;
68432;SDS011;55412;51.350;17.056;2023-02-26T14:44:00;66.80;;;18.98;;
68432;SDS011;55412;51.350;17.056;2023-02-26T14:46:35;58.80;;;18.13;;
68432;SDS011;55412;51.350;17.056;2023-02-26T14:49:01;34.38;;;9.18;;
68432;SDS011;55412;51.350;17.056;2023-02-26T14:52:25;48.45;;;14.00;;
68432;SDS011;55412;51.350;17.056;2023-02-26T14:58:13;57.63;;;16.25;;
68432;SDS011;55412;51.350;17.056;2023-02-26T15:06:50;55.33;;;15.10;;
68432;SDS011;55412;51.350;17.056;2023-02-26T15:15:32;86.60;;;22.63;;
68432;SDS011;55412;51.350;17.056;2023-02-26T15:24:11;161.35;;;40.88;;
68432;SDS011;55412;51.350;17.056;2023-02-26T15:26:44;92.53;;;23.73;;
68432;SDS011;55412;51.350;17.056;2023-02-26T15:29:14;207.33;;;51.53;;
68432;SDS011;55412;51.350;17.056;2023-02-26T15:31:42;113.60;;;27.48;;
68432;SDS011;55412;51.350;17.056;2023-02-26T15:34:15;137.98;;;33.20;;
68432;SDS011;55412;51.350;17.056;2023-02-26T15:36:45;87.43;;;25.13;;
68432;SDS011;55412;51.350;17.056;2023-02-26T15:39:15;158.52;;;41.10;;
68432;SDS011;55412;51.350;17.056;2023-02-26T15:41:43;82.20;;;24.40;;
68432;SDS011;55412;51.350;17.056;2023-02-26T15:44:14;61.35;;;16.58;;
68432;SDS011;55412;51.350;17.056;2023-02-26T15:46:45;84.18;;;24.75;;
68432;SDS011;55412;51.350;17.056;2023-02-26T15:49:28;56.30;;;18.85;;
68432;SDS011;55412;51.350;17.056;2023-02-26T15:52:00;73.43;;;26.83;;
68432;SDS011;55412;51.350;17.056;2023-02-26T15:54:32;63.40;;;23.50;;
68432;SDS011;55412;51.350;17.056;2023-02-26T15:57:21;75.95;;;28.60;;
68432;SDS011;55412;51.350;17.056;2023-02-26T16:00:00;62.40;;;22.75;;
68432;SDS011;55412;51.350;17.056;2023-02-26T16:02:34;33.92;;;11.80;;
68432;SDS011;55412;51.350;17.056;2023-02-26T16:05:02;40.63;;;13.25;;
68432;SDS011;55412;51.350;17.056;2023-02-26T16:07:29;66.40;;;23.17;;
68432;SDS011;55412;51.350;17.056;2023-02-26T16:09:56;47.63;;;15.85;;
68432;SDS011;55412;51.350;17.056;2023-02-26T16:12:35;45.17;;;14.85;;
68432;SDS011;55412;51.350;17.056;2023-02-26T16:15:11;45.88;;;17.48;;
68432;SDS011;55412;51.350;17.056;2023-02-26T16:17:42;76.88;;;30.45;;
68432;SDS011;55412;51.350;17.056;2023-02-26T16:20:18;32.47;;;11.33;;
68432;SDS011;55412;51.350;17.056;2023-02-26T16:22:48;46.47;;;19.27;;
68432;SDS011;55412;51.350;17.056;2023-02-26T16:25:34;24.23;;;8.73;;
68432;SDS011;55412;51.350;17.056;2023-02-26T16:28:14;69.63;;;26.45;;
68432;SDS011;55412;51.350;17.056;2023-02-26T16:30:48;65.00;;;22.23;;
68432;SDS011;55412;51.350;17.056;2023-02-26T16:33:20;90.93;;;25.50;;
68432;SDS011;55412;51.350;17.056;2023-02-26T16:35:52;104.00;;;27.70;;
68432;SDS011;55412;51.350;17.056;2023-02-26T16:39:04;85.18;;;22.35;;
68432;SDS011;55412;51.350;17.056;2023-02-26T16:44:49;56.15;;;18.05;;
68432;SDS011;55412;51.350;17.056;2023-02-26T16:47:22;61.33;;;19.80;;
68432;SDS011;55412;51.350;17.056;2023-02-26T16:49:51;71.47;;;26.40;;
68432;SDS011;55412;51.350;17.056;2023-02-26T16:52:18;36.75;;;11.80;;
68432;SDS011;55412;51.350;17.056;2023-02-26T16:54:52;24.00;;;7.82;;
68432;SDS011;55412;51.350;17.056;2023-02-26T16:57:31;18.73;;;7.25;;
68432;SDS011;55412;51.350;17.056;2023-02-26T17:00:04;23.90;;;7.37;;
68432;SDS011;55412;51.350;17.056;2023-02-26T17:02:41;20.55;;;7.32;;
68432;SDS011;55412;51.350;17.056;2023-02-26T17:05:24;24.02;;;7.35;;
68432;SDS011;55412;51.350;17.056;2023-02-26T17:07:55;27.38;;;9.55;;
68432;SDS011;55412;51.350;17.056;2023-02-26T17:10:59;26.90;;;9.45;;
68432;SDS011;55412;51.350;17.056;2023-02-26T17:13:31;24.43;;;9.40;;
68432;SDS011;55412;51.350;17.056;2023-02-26T17:16:03;20.15;;;8.00;;
68432;SDS011;55412;51.350;17.056;2023-02-26T17:18:32;21.55;;;6.90;;
68432;SDS011;55412;51.350;17.056;2023-02-26T17:20:59;24.75;;;7.60;;
68432;SDS011;55412;51.350;17.056;2023-02-26T17:23:30;16.48;;;5.60;;
68432;SDS011;55412;51.350;17.056;2023-02-26T17:26:01;28.37;;;7.30;;
68432;SDS011;55412;51.350;17.056;2023-02-26T17:28:33;21.67;;;7.32;;
68432;SDS011;55412;51.350;17.056;2023-02-26T17:31:03;37.58;;;10.23;;
68432;SDS011;55412;51.350;17.056;2023-02-26T17:33:29;45.95;;;13.55;;
68432;SDS011;55412;51.350;17.056;2023-02-26T17:35:57;29.23;;;10.88;;
68432;SDS011;55412;51.350;17.056;2023-02-26T17:38:26;32.27;;;10.30;;
68432;SDS011;55412;51.350;17.056;2023-02-26T17:40:52;25.70;;;9.73;;
68432;SDS011;55412;51.350;17.056;2023-02-26T17:43:23;21.45;;;7.90;;
68432;SDS011;55412;51.350;17.056;2023-02-26T17:45:54;17.15;;;7.10;;
68432;SDS011;55412;51.350;17.056;2023-02-26T17:48:20;14.50;;;4.20;;
68432;SDS011;55412;51.350;17.056;2023-02-26T17:50:52;16.07;;;4.30;;
68432;SDS011;55412;51.350;17.056;2023-02-26T17:53:20;18.05;;;4.75;;
68432;SDS011;55412;51.350;17.056;2023-02-26T17:55:51;11.25;;;3.58;;
68432;SDS011;55412;51.350;17.056;2023-02-26T17:58:22;20.30;;;5.80;;
68432;SDS011;55412;51.350;17.056;2023-02-26T18:00:51;35.20;;;8.13;;
68432;SDS011;55412;51.350;17.056;2023-02-26T18:03:19;16.73;;;5.23;;
68432;SDS011;55412;51.350;17.056;2023-02-26T18:05:47;11.45;;;3.67;;